Time;durP1;ratioP1;P1;durP2;ratioP2;P2;SDS_P1;SDS_P2;PMS_P1;PMS_P2;Temp;Humidity;BMP_temperature;BMP_pressure;BME280_temperature;BME280_humidity;BME280_pressure;Samples;Min_cycle;Max_cycle;Signal;HPM_P1;HPM_P2
2021/07/22 00:00:29;;;;;;;9.97;8.50;;;19.30;99.90;;;;;;5074825;28;20656;-73
2021/07/22 00:02:54;;;;;;;12.50;8.53;;;19.30;99.90;;;;;;5074636;28;20225;-73
2021/07/22 00:05:20;;;;;;;13.37;8.10;;;19.30;99.90;;;;;;5073489;28;20335;-72
2021/07/22 00:07:46;;;;;;;9.40;8.10;;;19.30;99.90;;;;;;5074983;28;20182;-73
2021/07/22 00:10:12;;;;;;;11.53;6.90;;;19.30;99.90;;;;;;5074942;28;20186;-74
2021/07/22 00:12:38;;;;;;;13.30;8.03;;;19.30;99.90;;;;;;5072975;28;20835;-72
2021/07/22 00:15:05;;;;;;;11.70;8.70;;;19.20;99.90;;;;;;5073590;28;20421;-73
2021/07/22 00:17:31;;;;;;;9.70;7.67;;;19.20;99.90;;;;;;5075077;28;20216;-73
2021/07/22 00:19:57;;;;;;;12.50;8.93;;;19.20;99.90;;;;;;5075233;28;20429;-73
2021/07/22 00:22:22;;;;;;;11.30;7.80;;;19.20;99.90;;;;;;5074500;28;20414;-73
2021/07/22 00:24:48;;;;;;;12.90;7.90;;;19.20;99.90;;;;;;5072695;28;20300;-70
2021/07/22 00:27:16;;;;;;;14.03;8.07;;;19.20;99.90;;;;;;5071336;28;20177;-70
2021/07/22 00:29:43;;;;;;;8.67;7.13;;;19.20;99.90;;;;;;5071234;28;20187;-70
2021/07/22 00:32:10;;;;;;;10.00;8.10;;;19.20;99.90;;;;;;5071090;28;20534;-70
2021/07/22 00:34:36;;;;;;;10.47;8.87;;;19.20;99.90;;;;;;5070028;28;20438;-70
2021/07/22 00:37:02;;;;;;;9.20;7.97;;;19.10;99.90;;;;;;5071149;28;20489;-70
2021/07/22 00:39:27;;;;;;;9.37;7.50;;;19.20;99.90;;;;;;5071916;28;20536;-70
2021/07/22 00:41:52;;;;;;;7.40;6.60;;;19.10;99.90;;;;;;5074870;28;20179;-70
2021/07/22 00:44:18;;;;;;;9.97;8.13;;;19.10;99.90;;;;;;5074971;28;20170;-70
2021/07/22 00:46:43;;;;;;;11.50;9.03;;;19.00;99.90;;;;;;5074866;28;20177;-70
2021/07/22 00:49:10;;;;;;;13.60;8.60;;;19.00;99.90;;;;;;5074828;28;20683;-71
2021/07/22 00:51:38;;;;;;;9.87;8.27;;;19.00;99.90;;;;;;5074707;28;20538;-70
2021/07/22 00:54:04;;;;;;;9.17;8.17;;;19.00;99.90;;;;;;5074680;28;20924;-70
2021/07/22 00:56:30;;;;;;;9.00;6.70;;;19.00;99.90;;;;;;5075120;28;20417;-70
2021/07/22 00:58:55;;;;;;;9.67;8.00;;;19.00;99.90;;;;;;5074818;28;20760;-70
2021/07/22 01:01:21;;;;;;;9.37;7.43;;;19.00;99.90;;;;;;5074692;28;20404;-70
2021/07/22 01:03:46;;;;;;;9.03;7.43;;;19.00;99.90;;;;;;5073204;28;20200;-70
2021/07/22 01:06:12;;;;;;;11.90;9.70;;;19.00;99.90;;;;;;5074474;28;20597;-70
2021/07/22 01:08:37;;;;;;;9.40;7.83;;;19.00;99.90;;;;;;5074270;28;20169;-70
2021/07/22 01:11:03;;;;;;;10.20;9.20;;;19.00;99.90;;;;;;5074300;28;20197;-70
2021/07/22 01:13:28;;;;;;;10.10;8.60;;;19.00;99.90;;;;;;5073145;28;20568;-70
2021/07/22 01:15:54;;;;;;;10.50;8.50;;;18.90;99.90;;;;;;5074352;28;20255;-71
2021/07/22 01:18:19;;;;;;;10.33;8.20;;;19.00;99.90;;;;;;5074216;28;20162;-70
2021/07/22 01:20:45;;;;;;;9.67;8.67;;;18.90;99.90;;;;;;5074222;28;20711;-70
2021/07/22 01:23:10;;;;;;;10.63;8.30;;;18.90;99.90;;;;;;5074033;28;20535;-70
2021/07/22 01:25:36;;;;;;;10.70;8.43;;;18.80;99.90;;;;;;5074305;28;20206;-71
2021/07/22 01:28:01;;;;;;;10.50;8.67;;;18.90;99.90;;;;;;5074354;28;20178;-70
2021/07/22 01:30:27;;;;;;;7.40;6.60;;;18.90;99.90;;;;;;5073850;28;20198;-70
2021/07/22 01:32:52;;;;;;;9.87;8.80;;;18.90;99.90;;;;;;5072687;28;20238;-70
2021/07/22 01:35:19;;;;;;;9.30;8.00;;;18.90;99.90;;;;;;5074058;28;20673;-70
2021/07/22 01:37:45;;;;;;;9.90;7.47;;;18.80;99.90;;;;;;5074413;28;20181;-70
2021/07/22 01:40:12;;;;;;;14.47;8.20;;;18.80;99.90;;;;;;5074030;28;20449;-70
2021/07/22 01:42:38;;;;;;;9.97;7.90;;;18.80;99.90;;;;;;5073780;28;20178;-70
2021/07/22 01:45:05;;;;;;;8.73;7.83;;;18.70;99.90;;;;;;5073799;28;20413;-70
2021/07/22 01:47:33;;;;;;;9.50;8.00;;;18.60;99.90;;;;;;5073685;28;20847;-70
2021/07/22 01:49:58;;;;;;;9.23;7.47;;;18.60;99.90;;;;;;5073811;28;20431;-70
2021/07/22 01:52:24;;;;;;;10.33;8.10;;;18.60;99.90;;;;;;5072422;28;20457;-70
2021/07/22 01:54:49;;;;;;;9.30;8.07;;;18.60;99.90;;;;;;5074009;28;20170;-70
2021/07/22 01:57:15;;;;;;;10.63;9.07;;;18.60;99.90;;;;;;5073481;28;20245;-70
2021/07/22 01:59:40;;;;;;;9.57;7.87;;;18.60;99.90;;;;;;5073385;28;20618;-70
2021/07/22 02:02:08;;;;;;;13.10;7.97;;;18.50;99.90;;;;;;5073278;28;20179;-70
2021/07/22 02:04:34;;;;;;;9.17;8.27;;;18.50;99.90;;;;;;5073893;28;20189;-70
2021/07/22 02:06:59;;;;;;;12.83;8.10;;;18.50;99.90;;;;;;5073107;28;20892;-70
2021/07/22 02:09:25;;;;;;;11.50;8.37;;;18.50;99.90;;;;;;5073211;28;20454;-70
2021/07/22 02:11:52;;;;;;;9.87;8.70;;;18.50;99.90;;;;;;5073217;28;20279;-70
2021/07/22 02:14:17;;;;;;;11.20;8.20;;;18.40;99.90;;;;;;5073103;28;20194;-70
2021/07/22 02:16:44;;;;;;;10.57;8.07;;;18.40;99.90;;;;;;5073124;28;20813;-70
2021/07/22 02:19:09;;;;;;;13.03;9.17;;;18.40;99.90;;;;;;5073045;28;20438;-70
2021/07/22 02:21:37;;;;;;;12.73;8.10;;;18.40;99.90;;;;;;5072964;28;20647;-70
2021/07/22 02:24:04;;;;;;;10.37;8.40;;;18.40;99.90;;;;;;5073113;28;20249;-70
2021/07/22 02:26:30;;;;;;;11.77;9.07;;;18.40;99.90;;;;;;5073081;28;20398;-70
2021/07/22 02:28:55;;;;;;;8.50;7.70;;;18.30;99.90;;;;;;5072594;28;20907;-70
2021/07/22 02:31:21;;;;;;;10.23;8.33;;;18.40;99.90;;;;;;5072826;28;20167;-70
2021/07/22 02:33:46;;;;;;;9.13;7.37;;;18.30;99.90;;;;;;5071498;28;20280;-71
2021/07/22 02:36:12;;;;;;;8.47;7.40;;;18.30;99.90;;;;;;5073451;28;20546;-70
2021/07/22 02:38:37;;;;;;;11.03;8.00;;;18.30;99.90;;;;;;5072929;28;20177;-70
2021/07/22 02:41:06;;;;;;;7.83;6.97;;;18.30;99.90;;;;;;5073169;28;20240;-70
2021/07/22 02:43:33;;;;;;;8.93;7.53;;;18.20;99.90;;;;;;5072644;28;20224;-70
2021/07/22 02:46:03;;;;;;;8.50;7.53;;;18.20;99.90;;;;;;5072862;28;20424;-70
2021/07/22 02:48:29;;;;;;;11.30;7.20;;;18.20;99.90;;;;;;5073107;28;20424;-70
2021/07/22 02:50:54;;;;;;;10.60;8.33;;;18.20;99.90;;;;;;5072539;28;20428;-70
2021/07/22 02:53:20;;;;;;;7.77;6.83;;;18.10;99.90;;;;;;5072645;28;20202;-70
2021/07/22 02:55:45;;;;;;;8.67;7.77;;;18.20;99.90;;;;;;5072844;28;20633;-70
2021/07/22 02:58:11;;;;;;;10.50;7.87;;;18.10;99.90;;;;;;5072477;28;20530;-70
2021/07/22 03:00:36;;;;;;;10.30;8.00;;;18.10;99.90;;;;;;5072731;28;20295;-70
2021/07/22 03:03:02;;;;;;;10.07;9.07;;;18.10;99.90;;;;;;5072555;28;20236;-70
2021/07/22 03:05:30;;;;;;;9.87;8.20;;;18.10;99.90;;;;;;5072809;28;20244;-70
2021/07/22 03:07:59;;;;;;;10.70;8.43;;;18.10;99.90;;;;;;5072457;28;20406;-70
2021/07/22 03:10:25;;;;;;;9.13;8.20;;;18.10;99.90;;;;;;5072362;28;20831;-70
2021/07/22 03:12:52;;;;;;;9.40;8.20;;;18.10;99.90;;;;;;5072200;28;20476;-70
2021/07/22 03:15:17;;;;;;;9.20;8.13;;;18.00;99.90;;;;;;5072480;28;20499;-70
2021/07/22 03:17:43;;;;;;;11.50;8.20;;;18.00;99.90;;;;;;5072139;28;20440;-70
2021/07/22 03:20:09;;;;;;;9.10;7.90;;;18.00;99.90;;;;;;5072129;28;20213;-70
2021/07/22 03:22:34;;;;;;;9.20;7.70;;;18.00;99.90;;;;;;5072351;28;20205;-70
2021/07/22 03:25:00;;;;;;;9.67;8.00;;;17.90;99.90;;;;;;5072560;28;20413;-70
2021/07/22 03:27:25;;;;;;;9.60;8.50;;;18.00;99.90;;;;;;5072094;28;20178;-70
2021/07/22 03:29:51;;;;;;;9.67;7.80;;;18.00;99.90;;;;;;5072006;28;20202;-70
2021/07/22 03:32:16;;;;;;;8.87;7.80;;;17.90;99.90;;;;;;5071936;28;20190;-71
2021/07/22 03:34:42;;;;;;;8.60;7.70;;;18.00;99.90;;;;;;5071839;28;20541;-70
2021/07/22 03:37:07;;;;;;;9.20;7.60;;;17.90;99.90;;;;;;5071692;28;20745;-72
2021/07/22 03:39:33;;;;;;;9.30;7.60;;;17.90;99.90;;;;;;5072004;28;20562;-70
2021/07/22 03:41:58;;;;;;;9.70;8.47;;;18.00;99.90;;;;;;5071591;28;20532;-70
2021/07/22 03:44:24;;;;;;;10.57;8.50;;;18.00;99.90;;;;;;5071948;28;20177;-70
2021/07/22 03:46:49;;;;;;;9.60;7.83;;;18.00;99.90;;;;;;5071589;28;20186;-70
2021/07/22 03:49:14;;;;;;;12.13;9.27;;;18.00;99.90;;;;;;5071644;28;20192;-70
2021/07/22 03:51:40;;;;;;;9.80;8.80;;;18.00;99.90;;;;;;5071492;28;20188;-70
2021/07/22 03:54:05;;;;;;;9.27;8.30;;;18.10;99.90;;;;;;5071727;28;20165;-70
2021/07/22 03:56:33;;;;;;;9.23;8.30;;;18.10;99.90;;;;;;5071624;28;20238;-70
2021/07/22 03:58:58;;;;;;;11.67;8.57;;;18.10;99.90;;;;;;5071493;28;20176;-70
2021/07/22 04:01:24;;;;;;;10.57;7.53;;;18.10;99.90;;;;;;5071420;28;20894;-70
2021/07/22 04:03:50;;;;;;;11.70;8.43;;;18.20;99.90;;;;;;5071467;28;20268;-70
2021/07/22 04:06:15;;;;;;;10.53;8.20;;;18.20;99.90;;;;;;5071659;28;20180;-70
2021/07/22 04:08:41;;;;;;;10.90;9.10;;;18.20;99.90;;;;;;5071477;28;20166;-70
2021/07/22 04:11:06;;;;;;;10.40;8.70;;;18.20;99.90;;;;;;5071255;28;20195;-70
2021/07/22 04:13:32;;;;;;;10.20;9.20;;;18.10;99.90;;;;;;5071547;28;20199;-68
2021/07/22 04:16:02;;;;;;;12.53;8.77;;;18.20;99.90;;;;;;5074583;28;20158;-68
2021/07/22 04:18:27;;;;;;;10.73;8.30;;;18.30;99.90;;;;;;5075263;28;20164;-69
2021/07/22 04:20:52;;;;;;;11.73;8.90;;;18.30;99.90;;;;;;5075210;28;20823;-68
2021/07/22 04:23:18;;;;;;;10.00;8.70;;;18.30;99.90;;;;;;5075247;28;20262;-70
2021/07/22 04:25:46;;;;;;;12.00;9.87;;;18.40;99.90;;;;;;5075320;28;20170;-70
2021/07/22 04:28:11;;;;;;;13.20;9.47;;;18.40;99.90;;;;;;5075124;28;20173;-70
2021/07/22 04:30:38;;;;;;;11.60;9.67;;;18.50;99.90;;;;;;5073794;28;20435;-70
2021/07/22 04:33:03;;;;;;;13.80;9.90;;;18.60;99.90;;;;;;5075487;28;20210;-70
2021/07/22 04:35:28;;;;;;;10.53;9.43;;;18.50;99.90;;;;;;5075140;28;20764;-70
2021/07/22 04:37:54;;;;;;;14.10;10.10;;;18.60;99.90;;;;;;5075106;28;20610;-70
2021/07/22 04:40:19;;;;;;;10.67;9.27;;;18.60;99.90;;;;;;5075183;28;20185;-70
2021/07/22 04:42:45;;;;;;;10.57;9.47;;;18.70;99.90;;;;;;5074872;28;20280;-70
2021/07/22 04:45:11;;;;;;;11.30;9.10;;;18.70;99.90;;;;;;5075004;28;20167;-70
2021/07/22 04:47:36;;;;;;;10.03;9.00;;;18.80;99.90;;;;;;5075454;28;20195;-70
2021/07/22 04:50:02;;;;;;;11.83;9.37;;;18.90;99.90;;;;;;5074914;28;20967;-70
2021/07/22 04:52:28;;;;;;;10.60;9.07;;;19.00;99.90;;;;;;5074640;28;20224;-70
2021/07/22 04:54:53;;;;;;;13.10;10.67;;;18.90;99.90;;;;;;5074906;28;20804;-70
2021/07/22 04:57:18;;;;;;;10.43;9.07;;;18.90;99.90;;;;;;5074872;28;20156;-70
2021/07/22 04:59:44;;;;;;;11.53;9.90;;;19.00;99.90;;;;;;5074866;28;20187;-70
2021/07/22 05:02:09;;;;;;;12.13;9.90;;;19.20;99.90;;;;;;5073391;28;20232;-70
2021/07/22 05:04:35;;;;;;;12.37;9.73;;;19.20;99.90;;;;;;5074707;28;20172;-71
2021/07/22 05:07:00;;;;;;;13.20;10.50;;;19.10;99.90;;;;;;5074504;28;20266;-70
2021/07/22 05:09:26;;;;;;;11.10;9.73;;;19.10;99.90;;;;;;5074319;28;20200;-70
2021/07/22 05:11:51;;;;;;;11.90;9.63;;;19.20;99.90;;;;;;5074456;28;20212;-70
2021/07/22 05:14:17;;;;;;;11.47;9.87;;;19.30;99.90;;;;;;5074938;28;20250;-71
2021/07/22 05:16:42;;;;;;;9.60;8.57;;;19.30;99.90;;;;;;5073269;28;20173;-72
2021/07/22 05:19:09;;;;;;;12.93;9.57;;;19.30;99.90;;;;;;5075074;28;20190;-72
2021/07/22 05:21:35;;;;;;;10.13;9.20;;;19.30;99.90;;;;;;5075213;28;20556;-71
2021/07/22 05:24:00;;;;;;;9.97;8.93;;;19.40;99.90;;;;;;5075810;28;20406;-72
2021/07/22 05:26:25;;;;;;;12.53;8.53;;;19.60;99.90;;;;;;5075597;28;20576;-73
2021/07/22 05:28:51;;;;;;;9.23;8.30;;;19.50;99.90;;;;;;5075197;28;20164;-70
2021/07/22 05:31:16;;;;;;;10.70;8.40;;;20.00;99.90;;;;;;5075776;28;20168;-72
2021/07/22 05:33:42;;;;;;;9.90;8.00;;;20.30;99.90;;;;;;5077608;28;20258;-72
2021/07/22 05:36:09;;;;;;;10.90;8.40;;;20.00;99.90;;;;;;5078015;28;20634;-72
2021/07/22 05:38:35;;;;;;;10.90;8.67;;;20.30;99.90;;;;;;5077510;28;20277;-72
2021/07/22 05:41:02;;;;;;;9.57;8.57;;;20.20;99.90;;;;;;5076884;28;20442;-72
2021/07/22 05:43:28;;;;;;;8.37;7.47;;;20.20;99.90;;;;;;5077047;28;20417;-72
2021/07/22 05:45:54;;;;;;;11.33;7.33;;;20.20;99.90;;;;;;5077328;28;20482;-73
2021/07/22 05:48:20;;;;;;;9.50;8.30;;;20.10;99.90;;;;;;5076638;28;20764;-72
2021/07/22 05:50:46;;;;;;;8.73;7.10;;;20.40;99.90;;;;;;5076393;28;20440;-71
2021/07/22 05:53:12;;;;;;;8.87;7.50;;;20.50;99.90;;;;;;5076206;28;20200;-73
2021/07/22 05:55:37;;;;;;;9.90;7.43;;;21.00;99.90;;;;;;5076976;28;20179;-72
2021/07/22 05:58:03;;;;;;;10.80;8.00;;;20.70;99.90;;;;;;5076000;28;20262;-72
2021/07/22 06:00:28;;;;;;;8.53;7.73;;;20.70;99.90;;;;;;5076699;28;20272;-72
2021/07/22 06:02:54;;;;;;;8.03;7.27;;;21.00;99.90;;;;;;5077263;28;20270;-73
2021/07/22 06:05:19;;;;;;;8.30;7.50;;;21.90;99.90;;;;;;5077708;28;20208;-72
2021/07/22 06:07:46;;;;;;;11.93;7.53;;;21.30;99.90;;;;;;5078162;28;20176;-72
2021/07/22 06:10:12;;;;;;;9.40;7.73;;;21.10;99.90;;;;;;5076046;28;20642;-74
2021/07/22 06:12:38;;;;;;;8.53;6.87;;;21.40;99.90;;;;;;5075470;28;20448;-72
2021/07/22 06:15:04;;;;;;;9.07;8.17;;;22.20;99.90;;;;;;5076102;28;20515;-72
2021/07/22 06:17:29;;;;;;;7.60;6.90;;;22.30;99.90;;;;;;5076532;28;20168;-72
2021/07/22 06:19:55;;;;;;;8.57;7.67;;;22.10;99.90;;;;;;5076990;28;20770;-72
2021/07/22 06:22:20;;;;;;;8.53;7.07;;;21.80;99.90;;;;;;5075665;28;20173;-71
2021/07/22 06:24:46;;;;;;;13.03;8.50;;;22.00;99.90;;;;;;5076556;28;20247;-72
2021/07/22 06:27:12;;;;;;;7.40;6.80;;;22.50;99.90;;;;;;5075352;28;20224;-72
2021/07/22 06:29:38;;;;;;;7.53;6.83;;;23.10;99.90;;;;;;5075430;28;20192;-72
2021/07/22 06:32:04;;;;;;;13.50;6.67;;;23.20;99.90;;;;;;5076134;28;20248;-71
2021/07/22 06:34:29;;;;;;;9.63;6.97;;;22.90;99.90;;;;;;5077170;28;20420;-71
2021/07/22 06:36:55;;;;;;;7.50;6.80;;;22.50;99.90;;;;;;5076669;28;20547;-72
2021/07/22 06:39:20;;;;;;;8.00;7.20;;;22.50;99.90;;;;;;5076144;28;20191;-73
2021/07/22 06:41:45;;;;;;;6.60;5.90;;;22.20;99.90;;;;;;5077372;28;20176;-72
2021/07/22 06:44:11;;;;;;;11.50;7.17;;;22.40;99.90;;;;;;5076823;28;20223;-72
2021/07/22 06:46:36;;;;;;;8.13;6.47;;;22.80;99.90;;;;;;5075691;28;20168;-73
2021/07/22 06:49:02;;;;;;;6.50;5.90;;;23.30;99.90;;;;;;5076263;28;20296;-72
2021/07/22 06:51:27;;;;;;;7.63;6.77;;;23.10;99.90;;;;;;5075607;28;20181;-71
2021/07/22 06:53:54;;;;;;;6.80;5.80;;;23.30;99.90;;;;;;5076373;28;20261;-73
2021/07/22 06:56:19;;;;;;;7.20;6.00;;;23.20;99.90;;;;;;5076861;28;20360;-71
2021/07/22 06:58:46;;;;;;;6.60;6.00;;;23.30;99.90;;;;;;5076550;28;20484;-72
2021/07/22 07:01:12;;;;;;;7.07;6.00;;;23.30;99.90;;;;;;5076796;28;20199;-72
2021/07/22 07:03:37;;;;;;;7.53;6.43;;;22.80;99.90;;;;;;5076725;28;20431;-72
2021/07/22 07:06:02;;;;;;;7.30;6.57;;;22.90;99.90;;;;;;5077495;28;20174;-72
2021/07/22 07:08:28;;;;;;;8.80;7.60;;;23.00;99.90;;;;;;5076721;28;20194;-72
2021/07/22 07:10:53;;;;;;;8.37;6.00;;;23.00;99.90;;;;;;5076980;28;20195;-73
2021/07/22 07:13:19;;;;;;;8.17;7.03;;;23.10;99.90;;;;;;5077157;28;20210;-73
2021/07/22 07:15:44;;;;;;;7.77;6.73;;;23.60;99.90;;;;;;5080414;28;20226;-72
2021/07/22 07:18:10;;;;;;;7.10;6.23;;;23.40;99.90;;;;;;5078595;28;20172;-72
2021/07/22 07:20:36;;;;;;;7.60;6.50;;;23.70;99.90;;;;;;5078621;28;20668;-73
2021/07/22 07:23:02;;;;;;;7.23;6.40;;;24.80;99.90;;;;;;5076239;28;20175;-73
2021/07/22 07:25:27;;;;;;;12.07;6.50;;;24.30;99.90;;;;;;5075402;28;20403;-73
2021/07/22 07:27:53;;;;;;;9.03;6.40;;;24.90;99.90;;;;;;5075280;28;20180;-71
2021/07/22 07:30:20;;;;;;;6.57;5.87;;;24.40;99.90;;;;;;5074864;28;20232;-69
2021/07/22 07:32:46;;;;;;;7.73;6.17;;;25.00;99.90;;;;;;5075751;28;20205;-73
2021/07/22 07:35:12;;;;;;;10.30;6.33;;;24.00;99.90;;;;;;5075808;28;20410;-71
2021/07/22 07:37:38;;;;;;;7.73;6.40;;;24.80;99.90;;;;;;5076331;28;20440;-72
2021/07/22 07:40:04;;;;;;;10.87;7.07;;;25.40;99.90;;;;;;5076933;28;20656;-71
2021/07/22 07:42:30;;;;;;;7.87;6.70;;;25.80;99.90;;;;;;5075398;28;20198;-72
2021/07/22 07:44:55;;;;;;;6.63;6.03;;;25.40;99.90;;;;;;5075570;28;20483;-71
2021/07/22 07:47:21;;;;;;;7.63;6.50;;;25.30;99.90;;;;;;5075561;28;20171;-72
2021/07/22 07:49:46;;;;;;;8.63;7.17;;;24.90;99.90;;;;;;5076026;28;20197;-71
2021/07/22 07:52:12;;;;;;;7.40;6.73;;;25.20;99.90;;;;;;5075514;28;20591;-72
2021/07/22 07:54:37;;;;;;;7.13;5.93;;;25.00;99.90;;;;;;5076992;28;20507;-71
2021/07/22 07:57:03;;;;;;;7.10;6.40;;;25.80;99.90;;;;;;5077142;28;20191;-71
2021/07/22 07:59:28;;;;;;;15.17;7.40;;;26.80;99.90;;;;;;5077350;28;20242;-71
2021/07/22 08:01:54;;;;;;;6.97;6.23;;;26.30;99.90;;;;;;5078499;28;20174;-71
2021/07/22 08:04:19;;;;;;;7.57;6.33;;;24.90;99.90;;;;;;5077406;28;20192;-71
2021/07/22 08:06:44;;;;;;;6.97;6.20;;;25.40;99.90;;;;;;5076036;28;20632;-72
2021/07/22 08:09:10;;;;;;;6.53;5.87;;;26.90;99.90;;;;;;5076800;28;20197;-72
2021/07/22 08:11:35;;;;;;;6.57;5.93;;;26.50;99.90;;;;;;5076221;28;20162;-72
2021/07/22 08:14:01;;;;;;;9.27;6.30;;;25.80;99.90;;;;;;5078046;28;20202;-72
2021/07/22 08:16:26;;;;;;;7.70;6.43;;;26.60;99.90;;;;;;5078572;28;20168;-72
2021/07/22 08:18:52;;;;;;;6.67;5.83;;;26.10;99.90;;;;;;5072742;28;20166;-71
2021/07/22 08:21:18;;;;;;;6.40;5.80;;;25.40;99.90;;;;;;5071373;28;20699;-69
2021/07/22 08:23:44;;;;;;;5.50;5.00;;;26.30;99.90;;;;;;5071551;28;20608;-69
2021/07/22 08:26:09;;;;;;;7.30;6.60;;;27.20;99.90;;;;;;5071145;28;20641;-68
2021/07/22 08:28:36;;;;;;;10.03;6.20;;;25.90;99.90;;;;;;5071361;28;20407;-68
2021/07/22 08:31:02;;;;;;;7.63;6.67;;;25.60;99.90;;;;;;5071128;28;20203;-69
2021/07/22 08:33:27;;;;;;;6.17;5.30;;;25.10;99.90;;;;;;5069960;28;20543;-69
2021/07/22 08:35:53;;;;;;;6.70;5.80;;;24.90;99.90;;;;;;5071500;28;20499;-69
2021/07/22 08:38:18;;;;;;;9.30;6.90;;;25.60;99.90;;;;;;5069994;28;20170;-71
2021/07/22 08:40:44;;;;;;;8.40;6.87;;;24.90;99.90;;;;;;5069816;28;20200;-68
2021/07/22 08:43:09;;;;;;;8.07;6.10;;;24.70;99.90;;;;;;5071422;28;20174;-69
2021/07/22 08:45:35;;;;;;;7.87;6.07;;;25.70;99.90;;;;;;5071197;28;20186;-69
2021/07/22 08:48:01;;;;;;;6.07;5.47;;;26.50;99.90;;;;;;5071351;28;20174;-71
2021/07/22 08:50:27;;;;;;;6.93;5.60;;;26.60;99.90;;;;;;5071055;28;20203;-69
2021/07/22 08:52:52;;;;;;;6.53;5.70;;;25.90;99.90;;;;;;5071003;28;20573;-69
2021/07/22 08:55:19;;;;;;;7.83;5.60;;;26.60;99.90;;;;;;5070895;28;20413;-68
2021/07/22 08:57:45;;;;;;;8.00;5.50;;;26.60;99.90;;;;;;5070905;28;20178;-69
2021/07/22 09:00:11;;;;;;;6.10;5.50;;;26.70;99.90;;;;;;5071642;28;20985;-68
2021/07/22 09:02:37;;;;;;;6.83;6.17;;;27.10;99.90;;;;;;5074419;28;20198;-69
2021/07/22 09:05:05;;;;;;;7.47;5.60;;;27.40;99.90;;;;;;5074661;28;20416;-69
2021/07/22 09:07:31;;;;;;;7.63;5.90;;;27.70;99.90;;;;;;5074833;28;20197;-69
2021/07/22 09:10:05;;;;;;;6.77;6.17;;;26.90;99.90;;;;;;5074339;28;20807;-69
2021/07/22 09:12:35;;;;;;;7.37;5.53;;;25.90;99.90;;;;;;5074341;28;20565;-68
2021/07/22 09:15:01;;;;;;;5.90;5.40;;;26.50;99.90;;;;;;5074383;28;20416;-68
2021/07/22 09:17:27;;;;;;;6.97;6.37;;;25.10;99.90;;;;;;5074406;28;20491;-69
2021/07/22 09:19:52;;;;;;;8.30;6.47;;;25.00;99.90;;;;;;5074395;28;20503;-69
2021/07/22 09:22:35;;;;;;;6.50;5.83;;;24.30;99.90;;;;;;5074097;28;20205;-69
2021/07/22 09:25:02;;;;;;;6.63;6.03;;;25.20;99.90;;;;;;5074641;28;20170;-69
2021/07/22 09:27:35;;;;;;;6.93;6.27;;;25.90;99.90;;;;;;5074435;28;20753;-71
2021/07/22 09:30:02;;;;;;;8.17;6.30;;;25.20;99.90;;;;;;5074207;28;20478;-69
2021/07/22 09:32:32;;;;;;;8.07;6.10;;;25.60;99.90;;;;;;5074103;28;20440;-68
2021/07/22 09:35:11;;;;;;;6.77;5.80;;;25.20;99.90;;;;;;5073916;28;20412;-68
2021/07/22 09:37:43;;;;;;;9.50;7.23;;;24.70;99.90;;;;;;5073845;28;20745;-69
2021/07/22 09:40:11;;;;;;;5.97;5.30;;;25.30;99.90;;;;;;5074219;28;20431;-68
2021/07/22 09:42:45;;;;;;;6.10;5.50;;;26.20;99.90;;;;;;5074108;28;20407;-69
2021/07/22 09:45:12;;;;;;;6.20;5.60;;;26.30;99.90;;;;;;5077250;28;20408;-70
2021/07/22 09:47:37;;;;;;;7.90;5.87;;;26.10;99.90;;;;;;5078265;28;20426;-72
2021/07/22 09:50:14;;;;;;;6.93;6.23;;;25.80;99.90;;;;;;5078494;28;20416;-72
2021/07/22 09:52:44;;;;;;;7.03;6.20;;;26.50;99.90;;;;;;5078543;28;20288;-72
2021/07/22 09:55:26;;;;;;;6.43;5.70;;;26.50;99.90;;;;;;5077988;28;20811;-73
2021/07/22 09:57:54;;;;;;;6.90;6.30;;;25.50;99.90;;;;;;5079012;28;20467;-73
2021/07/22 10:00:20;;;;;;;7.93;6.20;;;25.80;99.90;;;;;;5079007;28;20869;-72
2021/07/22 10:02:47;;;;;;;6.33;5.60;;;25.40;99.90;;;;;;5077365;28;20467;-72
2021/07/22 10:05:12;;;;;;;5.80;5.27;;;24.70;99.90;;;;;;5076566;28;20452;-72
2021/07/22 10:07:40;;;;;;;7.80;6.30;;;24.90;99.90;;;;;;5078745;28;20902;-73
2021/07/22 10:10:06;;;;;;;7.53;6.10;;;24.90;99.90;;;;;;5078291;28;20259;-72
2021/07/22 10:12:34;;;;;;;11.10;5.87;;;24.60;99.90;;;;;;5076614;28;20528;-72
2021/07/22 10:15:01;;;;;;;7.07;6.00;;;24.00;99.90;;;;;;5079071;28;20405;-71
2021/07/22 10:17:32;;;;;;;7.10;6.27;;;23.30;99.90;;;;;;5078780;28;20405;-72
2021/07/22 10:20:00;;;;;;;8.63;6.93;;;23.30;99.90;;;;;;5078123;28;20516;-72
2021/07/22 10:22:25;;;;;;;7.20;6.50;;;23.30;99.90;;;;;;5077593;28;20412;-72
2021/07/22 10:24:53;;;;;;;9.80;6.80;;;23.40;99.90;;;;;;5077440;28;20408;-73
2021/07/22 10:27:19;;;;;;;8.93;6.90;;;23.00;99.90;;;;;;5077306;28;20428;-73
2021/07/22 10:29:46;;;;;;;6.53;5.93;;;23.50;99.90;;;;;;5059086;28;20430;-71
2021/07/22 10:32:15;;;;;;;7.30;6.60;;;23.20;99.90;;;;;;5077018;28;20451;-72
2021/07/22 10:34:41;;;;;;;8.97;6.57;;;23.20;99.90;;;;;;5077184;28;20910;-71
2021/07/22 10:37:07;;;;;;;6.90;6.20;;;23.00;99.90;;;;;;5077411;28;20404;-71
2021/07/22 10:39:57;;;;;;;6.40;5.80;;;23.10;99.90;;;;;;5075855;28;20477;-71
2021/07/22 10:42:43;;;;;;;8.77;6.77;;;22.80;99.90;;;;;;5077634;28;20257;-72
2021/07/22 10:45:20;;;;;;;8.73;7.20;;;22.90;99.90;;;;;;5077783;28;20407;-71
2021/07/22 10:48:08;;;;;;;9.60;7.07;;;22.70;99.90;;;;;;5075813;28;20476;-72
2021/07/22 10:50:40;;;;;;;8.43;7.57;;;22.70;99.90;;;;;;5077786;28;20449;-72
2021/07/22 10:53:06;;;;;;;7.97;6.43;;;22.70;99.90;;;;;;5077285;28;20500;-72
2021/07/22 10:55:41;;;;;;;9.10;6.90;;;23.10;99.90;;;;;;5076389;28;20500;-72
2021/07/22 10:58:24;;;;;;;7.17;6.20;;;23.60;99.90;;;;;;5076866;28;21092;-72
2021/07/22 11:00:51;;;;;;;9.77;6.47;;;23.20;99.90;;;;;;5077196;28;20427;-72
2021/07/22 11:03:45;;;;;;;10.50;7.63;;;23.30;99.90;;;;;;5076609;28;20461;-72
2021/07/22 11:06:12;;;;;;;7.60;6.30;;;23.10;99.90;;;;;;5075394;28;20791;-71
2021/07/22 11:08:43;;;;;;;10.60;8.30;;;23.50;99.90;;;;;;5075251;28;20405;-71
2021/07/22 11:11:13;;;;;;;7.77;7.07;;;23.80;99.90;;;;;;5077179;28;20810;-74
2021/07/22 11:13:46;;;;;;;10.10;7.07;;;23.80;99.90;;;;;;5078353;28;20440;-71
2021/07/22 11:16:24;;;;;;;7.33;6.63;;;23.90;99.90;;;;;;5077783;28;20908;-71
2021/07/22 11:18:58;;;;;;;7.20;6.10;;;23.50;99.90;;;;;;5077197;28;20877;-72
2021/07/22 11:21:28;;;;;;;7.13;6.50;;;23.90;99.90;;;;;;5076481;28;20413;-71
2021/07/22 11:23:58;;;;;;;8.33;7.40;;;23.90;99.90;;;;;;5077323;28;20448;-72
2021/07/22 11:26:29;;;;;;;7.47;5.83;;;24.20;99.90;;;;;;5077555;28;20414;-72
2021/07/22 11:28:55;;;;;;;6.70;6.10;;;24.30;99.90;;;;;;5076680;28;20498;-72
2021/07/22 11:31:20;;;;;;;8.90;7.17;;;24.20;99.90;;;;;;5077338;28;20447;-72
2021/07/22 11:33:47;;;;;;;7.37;6.13;;;23.70;99.90;;;;;;5077392;28;20204;-71
2021/07/22 11:36:19;;;;;;;9.07;6.50;;;23.90;99.90;;;;;;5077797;28;20193;-71
2021/07/22 11:38:53;;;;;;;8.43;6.63;;;24.30;99.90;;;;;;5076174;28;20411;-71
2021/07/22 11:41:21;;;;;;;7.60;7.00;;;24.60;99.90;;;;;;5077286;28;20405;-72
2021/07/22 11:43:58;;;;;;;6.73;6.07;;;24.40;99.90;;;;;;5077640;28;20404;-72
2021/07/22 11:46:38;;;;;;;7.20;6.37;;;23.70;99.90;;;;;;5077850;28;20434;-72
2021/07/22 11:49:10;;;;;;;7.13;6.43;;;23.20;99.90;;;;;;5078091;28;20795;-72
2021/07/22 11:51:37;;;;;;;7.13;6.43;;;23.10;99.90;;;;;;5077542;28;20446;-73
2021/07/22 11:54:02;;;;;;;7.93;7.13;;;23.30;99.90;;;;;;5076433;28;20575;-72
2021/07/22 11:56:35;;;;;;;9.53;7.73;;;23.10;99.90;;;;;;5077232;28;20525;-72
2021/07/22 11:59:09;;;;;;;6.90;6.30;;;23.30;99.90;;;;;;5077594;28;20160;-72
2021/07/22 12:01:49;;;;;;;6.87;6.27;;;23.20;99.90;;;;;;5077740;28;20881;-71
2021/07/22 12:04:29;;;;;;;8.13;6.80;;;23.20;99.90;;;;;;5078239;28;21007;-72
2021/07/22 12:06:56;;;;;;;6.97;6.33;;;23.10;99.90;;;;;;5077544;28;20840;-72
2021/07/22 12:09:23;;;;;;;7.40;6.57;;;23.20;99.90;;;;;;5077265;28;20470;-72
2021/07/22 12:11:50;;;;;;;10.33;8.03;;;23.00;99.90;;;;;;5077804;28;20400;-72
2021/07/22 12:14:37;;;;;;;9.23;7.30;;;23.10;99.90;;;;;;5077653;28;20775;-72
2021/07/22 12:17:08;;;;;;;8.03;7.23;;;23.20;99.90;;;;;;5078589;28;20868;-72
2021/07/22 12:19:36;;;;;;;8.97;7.03;;;23.50;99.90;;;;;;5077690;28;20933;-72
2021/07/22 12:22:21;;;;;;;6.83;6.23;;;23.90;99.90;;;;;;5078206;28;20415;-72
2021/07/22 12:24:51;;;;;;;8.17;6.93;;;23.90;99.90;;;;;;5077841;28;20395;-72
2021/07/22 12:27:28;;;;;;;8.40;6.77;;;23.70;99.90;;;;;;5077534;28;20391;-72
2021/07/22 12:29:53;;;;;;;8.87;6.70;;;23.30;99.90;;;;;;5077375;28;20420;-72
2021/07/22 12:32:19;;;;;;;7.63;6.80;;;23.40;99.90;;;;;;5077955;28;20467;-73
2021/07/22 12:34:44;;;;;;;9.50;8.57;;;23.50;99.90;;;;;;5076056;28;20187;-73
2021/07/22 12:37:10;;;;;;;7.80;6.90;;;23.40;99.90;;;;;;5080626;28;20211;-73
2021/07/22 12:39:35;;;;;;;10.47;7.70;;;23.20;99.90;;;;;;5079741;28;20184;-72
2021/07/22 12:42:13;;;;;;;8.67;7.40;;;23.30;99.90;;;;;;5080998;28;20169;-74